createdAt,value
2023-02-26T00:01:31.678Z,84.43
2023-02-26T00:04:02.330Z,84.17
2023-02-26T00:06:32.620Z,84.11
2023-02-26T00:09:00.011Z,83.76
2023-02-26T00:11:27.844Z,83.43
2023-02-26T00:13:55.166Z,84.00
2023-02-26T00:16:35.079Z,82.90
2023-02-26T00:19:06.429Z,81.99
2023-02-26T00:21:36.935Z,81.39
2023-02-26T00:24:06.637Z,81.22
2023-02-26T00:26:35.599Z,81.50
2023-02-26T00:29:04.251Z,80.62
2023-02-26T00:31:31.618Z,80.37
2023-02-26T00:33:59.143Z,80.35
2023-02-26T00:36:41.189Z,80.90
2023-02-26T00:39:21.846Z,80.31
2023-02-26T00:41:48.881Z,78.50
2023-02-26T00:44:16.068Z,77.96
2023-02-26T00:46:48.755Z,77.78
2023-02-26T00:49:33.868Z,76.75
2023-02-26T00:52:06.076Z,76.32
2023-02-26T00:54:32.814Z,75.70
2023-02-26T00:57:00.311Z,76.28
2023-02-26T00:59:27.134Z,76.44
2023-02-26T01:01:54.070Z,75.54
2023-02-26T01:04:23.582Z,76.27
2023-02-26T01:06:56.430Z,76.75
2023-02-26T01:09:33.447Z,77.22
2023-02-26T01:12:09.730Z,77.22
2023-02-26T01:14:37.234Z,77.94
2023-02-26T01:17:18.640Z,77.90
2023-02-26T01:20:05.510Z,78.31
2023-02-26T01:22:37.824Z,79.60
2023-02-26T01:25:15.893Z,79.37
2023-02-26T01:27:42.865Z,79.81
2023-02-26T01:30:10.598Z,80.27
2023-02-26T01:32:51.209Z,79.45
2023-02-26T01:35:53.956Z,79.76
2023-02-26T01:38:52.632Z,80.21
2023-02-26T01:41:46.284Z,80.39
2023-02-26T01:44:40.912Z,80.74
2023-02-26T01:47:25.365Z,80.18
2023-02-26T01:49:52.512Z,79.97
2023-02-26T01:52:49.829Z,80.18
2023-02-26T01:55:21.542Z,80.10
2023-02-26T01:57:50.009Z,80.06
2023-02-26T02:00:17.258Z,79.61
2023-02-26T02:02:44.317Z,80.07
2023-02-26T02:05:31.998Z,80.02
2023-02-26T02:07:59.774Z,79.67
2023-02-26T02:10:27.560Z,79.22
2023-02-26T02:13:11.613Z,79.13
2023-02-26T02:16:01.337Z,79.04
2023-02-26T02:19:00.908Z,78.75
2023-02-26T02:22:09.496Z,78.04
2023-02-26T02:25:04.169Z,76.98
2023-02-26T02:28:09.063Z,76.53
2023-02-26T02:30:56.357Z,75.26
2023-02-26T02:33:34.985Z,74.26
2023-02-26T02:36:19.411Z,74.12
2023-02-26T02:38:57.540Z,72.49
2023-02-26T02:41:34.432Z,72.47
2023-02-26T02:44:07.481Z,72.59
2023-02-26T02:46:38.298Z,72.89
2023-02-26T02:49:18.336Z,72.58
2023-02-26T02:51:52.448Z,72.21
2023-02-26T02:54:35.162Z,71.71
2023-02-26T02:57:16.130Z,72.50
2023-02-26T02:59:47.208Z,72.93
2023-02-26T03:02:19.941Z,72.83
2023-02-26T03:04:46.791Z,72.59
2023-02-26T03:07:13.686Z,72.73
2023-02-26T03:09:40.607Z,72.64
2023-02-26T03:12:07.377Z,73.11
2023-02-26T03:14:34.693Z,71.95
2023-02-26T03:17:34.018Z,72.05
2023-02-26T03:20:19.680Z,71.87
2023-02-26T03:23:07.579Z,71.40
2023-02-26T03:25:48.550Z,71.76
2023-02-26T03:28:32.201Z,72.30
2023-02-26T03:31:15.892Z,72.48
2023-02-26T03:33:54.610Z,73.38
2023-02-26T03:36:38.192Z,73.34
2023-02-26T03:39:27.492Z,73.90
2023-02-26T03:42:38.535Z,73.50
2023-02-26T03:45:11.194Z,73.28
2023-02-26T03:47:40.842Z,73.30
2023-02-26T03:50:31.469Z,73.53
2023-02-26T03:53:00.110Z,73.52
2023-02-26T03:55:39.126Z,73.89
2023-02-26T03:58:05.926Z,74.49
2023-02-26T04:00:34.561Z,74.58
2023-02-26T04:03:25.245Z,75.02
2023-02-26T04:05:52.922Z,74.48
2023-02-26T04:08:22.949Z,74.18
2023-02-26T04:10:58.352Z,74.98
2023-02-26T04:13:26.386Z,74.83
2023-02-26T04:15:53.101Z,75.63
2023-02-26T04:18:19.840Z,75.75
2023-02-26T04:20:46.540Z,75.99
2023-02-26T04:23:13.287Z,76.01
2023-02-26T04:25:40.369Z,76.08
2023-02-26T04:28:07.199Z,76.40
2023-02-26T04:30:34.273Z,75.66
2023-02-26T04:33:01.023Z,75.46
2023-02-26T04:35:27.980Z,75.07
2023-02-26T04:37:54.707Z,75.17
2023-02-26T04:40:23.725Z,74.63
2023-02-26T04:42:50.719Z,75.24
2023-02-26T04:45:17.934Z,75.02
2023-02-26T04:47:44.725Z,73.85
2023-02-26T04:50:12.160Z,73.28
2023-02-26T04:52:38.883Z,73.91
2023-02-26T04:55:07.587Z,74.03
2023-02-26T04:57:34.765Z,74.13
2023-02-26T05:00:01.603Z,73.42
2023-02-26T05:02:28.354Z,72.90
2023-02-26T05:04:55.089Z,72.26
2023-02-26T05:07:22.104Z,72.43
2023-02-26T05:09:48.869Z,72.13
2023-02-26T05:12:16.220Z,72.09
2023-02-26T05:14:42.984Z,73.16
2023-02-26T05:17:09.939Z,71.23
2023-02-26T05:19:36.679Z,71.77
2023-02-26T05:22:03.469Z,71.01
2023-02-26T05:24:30.180Z,70.66
2023-02-26T05:26:56.910Z,70.00
2023-02-26T05:29:23.730Z,70.43
2023-02-26T05:31:50.584Z,71.61
2023-02-26T05:34:17.369Z,70.93
2023-02-26T05:36:44.081Z,69.62
2023-02-26T05:39:10.938Z,69.51
2023-02-26T05:41:37.672Z,69.64
2023-02-26T05:44:04.504Z,69.56
2023-02-26T05:46:31.274Z,69.74
2023-02-26T05:48:57.986Z,70.17
2023-02-26T05:51:24.716Z,70.13
2023-02-26T05:53:51.485Z,69.96
2023-02-26T05:56:18.244Z,70.43
2023-02-26T05:58:45.411Z,70.63
2023-02-26T06:01:12.163Z,71.62
2023-02-26T06:03:44.144Z,71.13
2023-02-26T06:06:12.742Z,71.14
2023-02-26T06:08:39.523Z,71.51
2023-02-26T06:11:06.534Z,71.45
2023-02-26T06:13:33.452Z,71.84
2023-02-26T06:16:00.237Z,71.42
2023-02-26T06:18:27.099Z,71.41
2023-02-26T06:20:54.003Z,71.62
2023-02-26T06:23:21.204Z,71.52
2023-02-26T06:25:47.921Z,71.76
2023-02-26T06:28:14.652Z,71.66
2023-02-26T06:30:41.693Z,72.33
2023-02-26T06:33:08.461Z,72.13
2023-02-26T06:35:35.235Z,71.64
2023-02-26T06:38:02.009Z,71.94
2023-02-26T06:40:29.056Z,72.23
2023-02-26T06:42:55.822Z,73.17
2023-02-26T06:45:25.254Z,73.38
2023-02-26T06:47:52.169Z,73.97
2023-02-26T06:50:19.019Z,73.62
2023-02-26T06:52:45.822Z,74.13
2023-02-26T06:55:12.695Z,74.42
2023-02-26T06:57:39.727Z,74.64
2023-02-26T07:00:08.712Z,74.93
2023-02-26T07:02:35.631Z,75.09
2023-02-26T07:05:02.468Z,75.33
2023-02-26T07:07:29.199Z,75.28
2023-02-26T07:09:55.983Z,75.75
2023-02-26T07:12:22.706Z,75.88
2023-02-26T07:14:49.507Z,76.24
2023-02-26T07:17:20.613Z,75.72
2023-02-26T07:19:52.409Z,75.47
2023-02-26T07:22:22.086Z,75.61
2023-02-26T07:24:50.081Z,75.36
2023-02-26T07:27:17.057Z,75.84
2023-02-26T07:29:43.767Z,75.80
2023-02-26T07:32:10.535Z,75.22
2023-02-26T07:34:37.315Z,75.22
2023-02-26T07:37:04.111Z,75.14
2023-02-26T07:39:31.127Z,74.64
2023-02-26T07:41:57.864Z,74.39
2023-02-26T07:44:24.653Z,73.67
2023-02-26T07:46:51.377Z,74.46
2023-02-26T07:49:18.245Z,73.97
2023-02-26T07:51:46.085Z,73.71
2023-02-26T07:54:13.498Z,73.97
2023-02-26T07:56:41.436Z,73.31
2023-02-26T07:59:08.373Z,72.44
2023-02-26T08:01:36.004Z,72.56
2023-02-26T08:04:03.084Z,73.04
2023-02-26T08:06:30.287Z,73.54
2023-02-26T08:08:57.056Z,73.11
2023-02-26T08:11:23.792Z,73.01
2023-02-26T08:13:50.644Z,72.18
2023-02-26T08:16:17.548Z,72.32
2023-02-26T08:18:44.350Z,72.20
2023-02-26T08:21:11.771Z,72.54
2023-02-26T08:23:38.759Z,72.68
2023-02-26T08:26:09.220Z,71.81
2023-02-26T08:28:37.059Z,71.46
2023-02-26T08:31:04.297Z,71.08
2023-02-26T08:33:31.653Z,70.55
2023-02-26T08:35:59.228Z,69.28
2023-02-26T08:38:28.010Z,70.37
2023-02-26T08:40:55.235Z,69.36
2023-02-26T08:43:22.029Z,67.97
2023-02-26T08:45:49.758Z,67.24
2023-02-26T08:48:16.573Z,66.98
2023-02-26T08:50:43.444Z,65.59
2023-02-26T08:53:10.151Z,66.12
2023-02-26T08:55:37.251Z,65.53
2023-02-26T08:58:04.704Z,65.92
2023-02-26T09:00:31.881Z,65.68
2023-02-26T09:02:58.618Z,66.31
2023-02-26T09:05:25.471Z,65.01
2023-02-26T09:07:52.250Z,64.17
2023-02-26T09:10:19.086Z,64.01
2023-02-26T09:12:46.992Z,65.49
2023-02-26T09:15:14.850Z,65.64
2023-02-26T09:17:42.541Z,65.20
2023-02-26T09:20:10.932Z,65.22
2023-02-26T09:22:38.116Z,65.21
2023-02-26T09:25:06.285Z,63.88
2023-02-26T09:27:34.297Z,64.48
2023-02-26T09:30:01.200Z,65.21
2023-02-26T09:32:28.069Z,65.42
2023-02-26T09:34:54.836Z,66.98
2023-02-26T09:37:21.696Z,66.09
2023-02-26T09:39:48.423Z,66.82
2023-02-26T09:42:45.718Z,66.34
2023-02-26T09:45:38.669Z,66.45
2023-02-26T09:48:06.984Z,66.22
2023-02-26T09:50:52.561Z,64.83
2023-02-26T09:53:31.612Z,64.25
2023-02-26T09:56:20.125Z,62.93
2023-02-26T09:58:47.382Z,64.19
2023-02-26T10:01:32.627Z,63.66
2023-02-26T10:04:12.061Z,63.83
2023-02-26T10:07:11.160Z,64.46
2023-02-26T10:09:49.916Z,64.18
2023-02-26T10:12:21.723Z,64.36
2023-02-26T10:15:16.213Z,64.81
2023-02-26T10:18:07.395Z,64.23
2023-02-26T10:20:59.200Z,63.48
2023-02-26T10:24:04.567Z,61.69
2023-02-26T10:26:40.753Z,61.59
2023-02-26T10:29:36.981Z,61.33
2023-02-26T10:32:46.880Z,60.75
2023-02-26T10:35:19.000Z,62.39
2023-02-26T10:37:56.542Z,61.23
2023-02-26T10:41:09.336Z,61.37
2023-02-26T10:43:40.613Z,61.37
2023-02-26T10:46:23.272Z,61.40
2023-02-26T10:49:04.218Z,60.84
2023-02-26T10:51:39.853Z,60.42
2023-02-26T10:54:39.178Z,60.49
2023-02-26T10:57:19.406Z,60.45
2023-02-26T10:59:46.187Z,61.72
2023-02-26T11:02:34.914Z,60.81
2023-02-26T11:05:07.843Z,60.92
2023-02-26T11:07:37.339Z,61.61
2023-02-26T11:10:04.753Z,62.02
2023-02-26T11:12:32.888Z,62.30
2023-02-26T11:15:01.276Z,62.46
2023-02-26T11:17:32.569Z,62.84
2023-02-26T11:20:05.456Z,62.58
2023-02-26T11:22:37.356Z,63.80
2023-02-26T11:25:05.502Z,63.20
2023-02-26T11:27:37.364Z,64.17
2023-02-26T11:30:18.002Z,63.51
2023-02-26T11:32:46.713Z,64.65
2023-02-26T11:35:15.580Z,66.44
2023-02-26T11:37:49.155Z,65.43
2023-02-26T11:40:34.477Z,66.85
2023-02-26T11:43:06.912Z,66.84
2023-02-26T11:45:37.284Z,67.63
2023-02-26T11:48:14.992Z,68.10
2023-02-26T11:50:46.800Z,68.40
2023-02-26T11:53:25.705Z,69.17
2023-02-26T11:55:54.140Z,71.45
2023-02-26T11:58:24.572Z,71.27
2023-02-26T12:00:59.011Z,73.76
2023-02-26T12:03:34.902Z,74.18
2023-02-26T12:06:02.898Z,74.74
2023-02-26T12:08:42.333Z,76.21
2023-02-26T12:11:43.947Z,75.79
2023-02-26T12:14:26.214Z,76.23
2023-02-26T12:17:33.174Z,76.69
2023-02-26T12:20:20.091Z,76.39
2023-02-26T12:23:07.973Z,74.93
2023-02-26T12:26:08.682Z,76.74
2023-02-26T12:29:18.443Z,75.53
2023-02-26T12:32:20.342Z,74.98
2023-02-26T12:35:12.508Z,75.13
2023-02-26T12:37:57.190Z,72.35
2023-02-26T12:41:09.064Z,69.33
2023-02-26T12:43:49.370Z,72.02
2023-02-26T12:46:46.684Z,70.59
2023-02-26T12:49:35.158Z,71.09
2023-02-26T12:52:20.037Z,72.38
2023-02-26T12:55:37.999Z,73.30
2023-02-26T12:58:44.506Z,74.98
2023-02-26T13:01:35.853Z,76.48
2023-02-26T13:04:23.483Z,77.77
2023-02-26T13:07:36.435Z,78.19
2023-02-26T13:10:33.144Z,79.09
2023-02-26T13:13:44.991Z,80.59
2023-02-26T13:16:47.345Z,80.00
2023-02-26T13:19:31.100Z,80.40
2023-02-26T13:22:21.880Z,79.08
2023-02-26T13:25:12.968Z,77.19
2023-02-26T13:27:41.503Z,78.55
2023-02-26T13:30:37.343Z,77.09
2023-02-26T13:33:04.547Z,73.64
2023-02-26T13:35:38.912Z,75.87
2023-02-26T13:38:33.071Z,74.41
2023-02-26T13:41:09.886Z,77.60
2023-02-26T13:44:04.180Z,80.96
2023-02-26T13:47:05.843Z,79.40
2023-02-26T13:49:57.892Z,78.04
2023-02-26T13:52:31.531Z,76.51
2023-02-26T13:54:59.552Z,74.70
2023-02-26T13:57:54.224Z,71.33
2023-02-26T14:00:37.439Z,73.52
2023-02-26T14:03:32.580Z,71.51
2023-02-26T14:06:26.700Z,69.24
2023-02-26T14:08:57.530Z,67.01
2023-02-26T14:11:34.875Z,68.25
2023-02-26T14:14:22.295Z,67.63
2023-02-26T14:17:09.435Z,68.28
2023-02-26T14:20:01.954Z,66.08
2023-02-26T14:22:31.646Z,65.77
2023-02-26T14:25:13.101Z,67.23
2023-02-26T14:27:42.970Z,71.75
2023-02-26T14:30:09.673Z,77.62
2023-02-26T14:32:48.496Z,79.44
2023-02-26T14:35:26.558Z,78.52
2023-02-26T14:38:03.777Z,77.84
2023-02-26T14:40:40.078Z,76.71
2023-02-26T14:43:16.964Z,76.43
2023-02-26T14:45:46.058Z,74.44
2023-02-26T14:48:19.037Z,75.72
2023-02-26T14:51:02.046Z,77.36
2023-02-26T14:53:52.718Z,75.29
2023-02-26T14:57:18.827Z,75.12
2023-02-26T14:59:54.693Z,74.39
2023-02-26T15:02:38.196Z,74.98
2023-02-26T15:05:41.719Z,74.16
2023-02-26T15:08:36.405Z,74.79
2023-02-26T15:11:51.629Z,73.16
2023-02-26T15:14:33.496Z,71.82
2023-02-26T15:17:40.146Z,72.64
2023-02-26T15:20:27.056Z,72.62
2023-02-26T15:23:44.100Z,71.71
2023-02-26T15:26:20.351Z,74.74
2023-02-26T15:28:47.729Z,77.85
2023-02-26T15:31:14.620Z,81.84
2023-02-26T15:33:42.334Z,84.67
2023-02-26T15:36:18.011Z,86.70
2023-02-26T15:39:00.441Z,86.58
2023-02-26T15:41:30.500Z,86.68
2023-02-26T15:44:24.286Z,86.42
2023-02-26T15:46:57.397Z,88.08
2023-02-26T15:49:30.621Z,84.78
2023-02-26T15:51:59.292Z,82.58
2023-02-26T15:54:42.401Z,81.35
2023-02-26T15:57:11.874Z,80.43
2023-02-26T15:59:45.916Z,80.07
2023-02-26T16:02:20.733Z,78.74
2023-02-26T16:04:47.725Z,78.17
2023-02-26T16:07:15.052Z,78.92
2023-02-26T16:09:47.394Z,77.05
2023-02-26T16:12:22.674Z,76.34
2023-02-26T16:14:59.989Z,75.45
2023-02-26T16:17:32.538Z,74.22
2023-02-26T16:20:04.924Z,74.26
2023-02-26T16:22:44.460Z,72.87
2023-02-26T16:25:24.991Z,72.41
2023-02-26T16:28:01.143Z,71.94
2023-02-26T16:30:36.071Z,72.89
2023-02-26T16:33:05.858Z,71.71
2023-02-26T16:35:38.737Z,71.33
2023-02-26T16:38:24.667Z,71.92
2023-02-26T16:41:07.312Z,73.12
2023-02-26T16:43:47.779Z,73.20
2023-02-26T16:46:18.211Z,73.88
2023-02-26T16:48:53.166Z,74.85
2023-02-26T16:51:26.561Z,75.60
2023-02-26T16:53:59.612Z,76.36
2023-02-26T16:56:33.647Z,78.33
2023-02-26T16:59:14.350Z,79.73
2023-02-26T17:01:56.877Z,79.00
2023-02-26T17:04:34.802Z,78.69
2023-02-26T17:07:06.046Z,78.67
2023-02-26T17:09:50.070Z,77.47
2023-02-26T17:12:42.671Z,77.37
2023-02-26T17:15:26.883Z,77.00
2023-02-26T17:17:56.808Z,77.19
2023-02-26T17:20:28.744Z,77.30
2023-02-26T17:22:56.398Z,77.02
2023-02-26T17:25:25.390Z,78.03
2023-02-26T17:27:52.615Z,77.96
2023-02-26T17:30:24.190Z,78.35
2023-02-26T17:32:51.076Z,79.24
2023-02-26T17:35:19.266Z,78.92
2023-02-26T17:37:49.183Z,78.64
2023-02-26T17:40:24.236Z,78.05
2023-02-26T17:42:52.120Z,76.95
2023-02-26T17:45:20.572Z,77.60
2023-02-26T17:47:49.069Z,77.56
2023-02-26T17:50:33.772Z,77.33
2023-02-26T17:53:00.798Z,78.35
2023-02-26T17:55:27.612Z,78.27
2023-02-26T17:57:56.411Z,79.23
2023-02-26T18:00:23.542Z,78.70
2023-02-26T18:02:53.235Z,77.75
2023-02-26T18:05:20.566Z,78.22
2023-02-26T18:07:49.792Z,77.51
2023-02-26T18:10:24.586Z,77.45
2023-02-26T18:12:51.869Z,78.00
2023-02-26T18:15:18.701Z,78.88
2023-02-26T18:17:45.485Z,78.73
2023-02-26T18:20:19.737Z,78.31
2023-02-26T18:22:48.047Z,79.18
2023-02-26T18:25:15.726Z,78.31
2023-02-26T18:27:44.154Z,78.59
2023-02-26T18:30:22.842Z,77.52
2023-02-26T18:32:49.726Z,77.75
2023-02-26T18:35:18.009Z,77.15
2023-02-26T18:37:45.861Z,77.37
2023-02-26T18:40:15.913Z,77.07
2023-02-26T18:42:42.932Z,76.98
2023-02-26T18:45:11.610Z,76.70
2023-02-26T18:47:39.164Z,77.08
2023-02-26T18:50:08.313Z,77.37
2023-02-26T18:52:35.859Z,77.79
2023-02-26T18:55:03.187Z,78.20
2023-02-26T18:57:30.588Z,78.11
2023-02-26T18:59:57.412Z,78.92
2023-02-26T19:02:24.736Z,79.29
2023-02-26T19:04:52.500Z,79.02
2023-02-26T19:07:19.505Z,78.50
2023-02-26T19:09:46.252Z,80.51
2023-02-26T19:12:18.835Z,79.17
2023-02-26T19:14:45.809Z,78.91
2023-02-26T19:17:12.569Z,78.92
2023-02-26T19:19:42.595Z,79.08
2023-02-26T19:22:10.880Z,78.88
2023-02-26T19:24:38.088Z,78.53
2023-02-26T19:27:05.039Z,78.32
2023-02-26T19:29:33.984Z,78.30
2023-02-26T19:32:01.488Z,78.52
2023-02-26T19:34:28.490Z,77.89
2023-02-26T19:36:56.297Z,78.36
2023-02-26T19:39:24.344Z,77.51
2023-02-26T19:41:54.548Z,77.66
2023-02-26T19:44:22.834Z,77.56
2023-02-26T19:46:50.659Z,78.28
2023-02-26T19:49:18.916Z,77.39
2023-02-26T19:51:45.737Z,77.88
2023-02-26T19:54:15.190Z,78.04
2023-02-26T19:56:43.367Z,78.48
2023-02-26T19:59:10.589Z,78.28
2023-02-26T20:01:37.560Z,79.35
2023-02-26T20:04:04.404Z,79.38
2023-02-26T20:06:31.351Z,78.46
2023-02-26T20:08:58.107Z,78.77
2023-02-26T20:11:26.290Z,77.96
2023-02-26T20:13:53.410Z,78.68
2023-02-26T20:16:20.311Z,77.82
2023-02-26T20:18:47.130Z,77.40
2023-02-26T20:21:14.169Z,77.52
2023-02-26T20:23:41.027Z,77.66
2023-02-26T20:26:12.259Z,77.79
2023-02-26T20:28:40.050Z,77.62
2023-02-26T20:31:07.436Z,77.54
2023-02-26T20:33:36.214Z,77.16
2023-02-26T20:36:04.062Z,77.41
2023-02-26T20:38:30.983Z,77.52
2023-02-26T20:40:57.922Z,76.11
2023-02-26T20:43:25.458Z,76.33
2023-02-26T20:45:54.098Z,76.66
2023-02-26T20:48:21.598Z,76.07
2023-02-26T20:50:49.653Z,76.22
2023-02-26T20:53:16.421Z,75.53
2023-02-26T20:55:43.262Z,75.72
2023-02-26T20:58:10.166Z,75.39
2023-02-26T21:00:37.063Z,75.79
2023-02-26T21:03:03.910Z,75.08
2023-02-26T21:05:30.681Z,74.98
2023-02-26T21:07:57.440Z,75.43
2023-02-26T21:10:24.207Z,75.22
2023-02-26T21:12:51.816Z,74.58
2023-02-26T21:15:18.997Z,73.94
2023-02-26T21:17:45.985Z,74.41
2023-02-26T21:20:18.130Z,73.53
2023-02-26T21:22:46.498Z,74.06
2023-02-26T21:25:13.877Z,73.92
2023-02-26T21:27:41.159Z,73.30
2023-02-26T21:30:10.836Z,73.40
2023-02-26T21:32:39.024Z,73.46
2023-02-26T21:35:07.582Z,73.50
2023-02-26T21:37:34.554Z,73.96
2023-02-26T21:40:01.359Z,73.70
2023-02-26T21:42:28.410Z,74.02
2023-02-26T21:44:55.156Z,74.13
2023-02-26T21:47:21.991Z,73.27
2023-02-26T21:49:48.733Z,73.71
2023-02-26T21:52:15.600Z,73.92
2023-02-26T21:54:42.532Z,74.30
2023-02-26T21:57:09.464Z,74.55
2023-02-26T21:59:36.445Z,74.45
2023-02-26T22:02:04.034Z,74.43
2023-02-26T22:04:31.157Z,73.87
2023-02-26T22:06:57.912Z,74.25
2023-02-26T22:09:24.726Z,75.07
2023-02-26T22:11:51.491Z,74.16
2023-02-26T22:14:18.304Z,74.38
2023-02-26T22:16:45.120Z,74.68
2023-02-26T22:19:11.954Z,74.71
2023-02-26T22:21:38.730Z,74.25
2023-02-26T22:24:06.452Z,75.09
2023-02-26T22:26:33.248Z,75.35
2023-02-26T22:29:00.936Z,74.21
2023-02-26T22:31:29.645Z,74.77
2023-02-26T22:33:57.468Z,74.81
2023-02-26T22:36:25.235Z,74.20
2023-02-26T22:38:52.033Z,74.64
2023-02-26T22:41:18.886Z,74.84
2023-02-26T22:43:45.644Z,75.00
2023-02-26T22:46:12.454Z,74.80
2023-02-26T22:48:39.232Z,74.27
2023-02-26T22:51:06.073Z,74.13
2023-02-26T22:53:32.947Z,74.18
2023-02-26T22:55:59.727Z,75.13
2023-02-26T22:58:26.518Z,74.86
2023-02-26T23:01:05.226Z,74.66
2023-02-26T23:03:32.718Z,74.39
2023-02-26T23:06:00.119Z,75.31
2023-02-26T23:08:27.562Z,74.64
2023-02-26T23:10:57.252Z,74.76
2023-02-26T23:13:25.178Z,75.06
2023-02-26T23:15:52.335Z,75.29
2023-02-26T23:18:19.399Z,75.12
2023-02-26T23:20:48.084Z,75.15
2023-02-26T23:23:15.585Z,74.87
2023-02-26T23:25:43.788Z,75.32
2023-02-26T23:28:11.937Z,74.76
2023-02-26T23:30:39.414Z,75.06
2023-02-26T23:33:07.407Z,74.60
2023-02-26T23:35:35.561Z,75.30
2023-02-26T23:38:03.273Z,75.37
2023-02-26T23:40:30.461Z,75.23
2023-02-26T23:42:57.291Z,74.89
2023-02-26T23:45:24.598Z,75.14
2023-02-26T23:47:51.720Z,75.21
2023-02-26T23:50:18.548Z,74.95
2023-02-26T23:52:45.362Z,74.91
2023-02-26T23:55:12.827Z,75.23
2023-02-26T23:57:39.668Z,75.75
